sensor_id;sensor_type;location;lat;lon;timestamp;pressure;altitude;pressure_sealevel;temperature;humidity
14689;BME280;7432;48.728;9.154;2023-03-13T00:02:03;96121.25;;;5.95;92.57
14689;BME280;7432;48.728;9.154;2023-03-13T00:04:29;96116.53;;;6.00;91.74
14689;BME280;7432;48.728;9.154;2023-03-13T00:06:56;96126.97;;;6.07;91.45
14689;BME280;7432;48.728;9.154;2023-03-13T00:09:22;96120.56;;;6.03;91.93
14689;BME280;7432;48.728;9.154;2023-03-13T00:11:50;96116.91;;;6.05;91.36
14689;BME280;7432;48.728;9.154;2023-03-13T00:14:16;96109.63;;;6.10;91.46
14689;BME280;7432;48.728;9.154;2023-03-13T00:16:42;96114.06;;;6.08;91.88
14689;BME280;7432;48.728;9.154;2023-03-13T00:19:09;96087.16;;;6.04;91.41
14689;BME280;7432;48.728;9.154;2023-03-13T00:21:36;96108.13;;;6.17;91.38
14689;BME280;7432;48.728;9.154;2023-03-13T00:24:03;96104.97;;;6.23;92.05
14689;BME280;7432;48.728;9.154;2023-03-13T00:26:29;96110.31;;;6.30;91.29
14689;BME280;7432;48.728;9.154;2023-03-13T00:28:57;96095.72;;;6.22;91.54
14689;BME280;7432;48.728;9.154;2023-03-13T00:31:26;96112.06;;;6.29;91.04
14689;BME280;7432;48.728;9.154;2023-03-13T00:33:56;96109.88;;;6.34;92.27
14689;BME280;7432;48.728;9.154;2023-03-13T00:36:24;96106.38;;;6.35;91.67
14689;BME280;7432;48.728;9.154;2023-03-13T00:38:51;96095.34;;;6.35;91.19
14689;BME280;7432;48.728;9.154;2023-03-13T00:41:19;96103.09;;;6.43;91.54
14689;BME280;7432;48.728;9.154;2023-03-13T00:43:47;96102.53;;;6.49;90.69
14689;BME280;7432;48.728;9.154;2023-03-13T00:46:17;96103.84;;;6.53;90.67
14689;BME280;7432;48.728;9.154;2023-03-13T00:48:43;96097.78;;;6.54;91.22
14689;BME280;7432;48.728;9.154;2023-03-13T00:51:10;96091.56;;;6.56;90.58
14689;BME280;7432;48.728;9.154;2023-03-13T00:53:37;96084.56;;;6.58;90.38
14689;BME280;7432;48.728;9.154;2023-03-13T00:56:05;96092.75;;;6.62;90.42
14689;BME280;7432;48.728;9.154;2023-03-13T00:58:34;96084.41;;;6.60;90.36
14689;BME280;7432;48.728;9.154;2023-03-13T01:01:09;96085.59;;;6.66;89.71
14689;BME280;7432;48.728;9.154;2023-03-13T01:03:37;96082.06;;;6.67;89.90
14689;BME280;7432;48.728;9.154;2023-03-13T01:06:06;96071.94;;;6.75;89.18
14689;BME280;7432;48.728;9.154;2023-03-13T01:08:33;96067.47;;;6.77;89.47
14689;BME280;7432;48.728;9.154;2023-03-13T01:11:02;96058.81;;;6.78;89.41
14689;BME280;7432;48.728;9.154;2023-03-13T01:13:29;96061.59;;;6.84;88.68
14689;BME280;7432;48.728;9.154;2023-03-13T01:15:57;96049.69;;;6.93;89.02
14689;BME280;7432;48.728;9.154;2023-03-13T01:18:23;96042.66;;;6.95;88.73
14689;BME280;7432;48.728;9.154;2023-03-13T01:20:51;96055.09;;;7.07;88.32
14689;BME280;7432;48.728;9.154;2023-03-13T01:23:18;96046.28;;;7.10;86.57
14689;BME280;7432;48.728;9.154;2023-03-13T01:25:44;96039.25;;;7.12;86.95
14689;BME280;7432;48.728;9.154;2023-03-13T01:28:11;96036.09;;;7.18;87.39
14689;BME280;7432;48.728;9.154;2023-03-13T01:30:37;96035.31;;;7.18;85.69
14689;BME280;7432;48.728;9.154;2023-03-13T01:33:03;96021.69;;;7.17;86.05
14689;BME280;7432;48.728;9.154;2023-03-13T01:35:30;96032.91;;;7.24;85.77
14689;BME280;7432;48.728;9.154;2023-03-13T01:37:58;96019.81;;;7.27;85.90
14689;BME280;7432;48.728;9.154;2023-03-13T01:40:24;96020.34;;;7.31;86.14
14689;BME280;7432;48.728;9.154;2023-03-13T01:42:52;96013.59;;;7.30;85.64
14689;BME280;7432;48.728;9.154;2023-03-13T01:45:53;95998.69;;;7.25;85.57
14689;BME280;7432;48.728;9.154;2023-03-13T01:48:24;96000.16;;;7.28;85.95
14689;BME280;7432;48.728;9.154;2023-03-13T01:50:52;96001.25;;;7.25;86.17
14689;BME280;7432;48.728;9.154;2023-03-13T01:53:21;95995.22;;;7.34;85.85
14689;BME280;7432;48.728;9.154;2023-03-13T01:55:49;95991.50;;;7.29;84.49
14689;BME280;7432;48.728;9.154;2023-03-13T01:58:16;95977.75;;;7.30;85.59
14689;BME280;7432;48.728;9.154;2023-03-13T02:00:42;95979.00;;;7.26;85.67
14689;BME280;7432;48.728;9.154;2023-03-13T02:03:11;95967.81;;;7.27;85.67
14689;BME280;7432;48.728;9.154;2023-03-13T02:05:40;95960.91;;;7.27;86.39
14689;BME280;7432;48.728;9.154;2023-03-13T02:08:12;95959.78;;;7.22;86.24
14689;BME280;7432;48.728;9.154;2023-03-13T02:10:49;95958.53;;;7.26;85.67
14689;BME280;7432;48.728;9.154;2023-03-13T02:13:16;95951.34;;;7.29;85.16
14689;BME280;7432;48.728;9.154;2023-03-13T02:15:43;95949.91;;;7.27;86.33
14689;BME280;7432;48.728;9.154;2023-03-13T02:18:10;95950.69;;;7.27;86.26
14689;BME280;7432;48.728;9.154;2023-03-13T02:20:38;95949.91;;;7.27;86.03
14689;BME280;7432;48.728;9.154;2023-03-13T02:23:11;95948.28;;;7.26;86.23
14689;BME280;7432;48.728;9.154;2023-03-13T02:25:43;95949.91;;;7.27;87.59
14689;BME280;7432;48.728;9.154;2023-03-13T02:28:12;95958.41;;;7.35;86.15
14689;BME280;7432;48.728;9.154;2023-03-13T02:30:42;95953.44;;;7.34;87.04
14689;BME280;7432;48.728;9.154;2023-03-13T02:33:09;95948.03;;;7.37;87.02
14689;BME280;7432;48.728;9.154;2023-03-13T02:35:36;95944.22;;;7.49;86.38
14689;BME280;7432;48.728;9.154;2023-03-13T02:38:05;95944.22;;;7.49;85.98
14689;BME280;7432;48.728;9.154;2023-03-13T02:40:36;95932.41;;;7.56;85.97
14689;BME280;7432;48.728;9.154;2023-03-13T02:43:07;95929.06;;;7.63;85.77
14689;BME280;7432;48.728;9.154;2023-03-13T02:45:34;95923.47;;;7.76;84.30
14689;BME280;7432;48.728;9.154;2023-03-13T02:48:00;95910.81;;;7.74;84.17
14689;BME280;7432;48.728;9.154;2023-03-13T02:50:27;95907.34;;;7.84;84.48
14689;BME280;7432;48.728;9.154;2023-03-13T02:52:55;95900.59;;;7.83;84.69
14689;BME280;7432;48.728;9.154;2023-03-13T02:55:26;95897.09;;;7.84;84.85
14689;BME280;7432;48.728;9.154;2023-03-13T02:57:53;95893.09;;;7.89;84.29
14689;BME280;7432;48.728;9.154;2023-03-13T03:00:21;95887.31;;;7.95;84.43
14689;BME280;7432;48.728;9.154;2023-03-13T03:02:51;95894.06;;;8.04;84.23
14689;BME280;7432;48.728;9.154;2023-03-13T03:05:18;95893.56;;;8.01;84.97
14689;BME280;7432;48.728;9.154;2023-03-13T03:07:46;95882.66;;;7.99;85.01
14689;BME280;7432;48.728;9.154;2023-03-13T03:10:13;95876.91;;;7.97;85.28
14689;BME280;7432;48.728;9.154;2023-03-13T03:12:39;95871.47;;;8.08;85.15
14689;BME280;7432;48.728;9.154;2023-03-13T03:15:07;95867.16;;;8.08;84.35
14689;BME280;7432;48.728;9.154;2023-03-13T03:17:34;95858.66;;;8.08;85.48
14689;BME280;7432;48.728;9.154;2023-03-13T03:20:01;95862.66;;;8.10;85.59
14689;BME280;7432;48.728;9.154;2023-03-13T03:22:28;95854.16;;;8.10;87.65
14689;BME280;7432;48.728;9.154;2023-03-13T03:24:55;95852.06;;;8.13;87.30
14689;BME280;7432;48.728;9.154;2023-03-13T03:27:21;95856.22;;;8.06;88.30
14689;BME280;7432;48.728;9.154;2023-03-13T03:29:47;95861.84;;;8.10;89.64
14689;BME280;7432;48.728;9.154;2023-03-13T03:32:14;95842.94;;;8.03;90.03
14689;BME280;7432;48.728;9.154;2023-03-13T03:34:42;95851.75;;;8.08;90.18
14689;BME280;7432;48.728;9.154;2023-03-13T03:37:08;95844.06;;;8.16;90.48
14689;BME280;7432;48.728;9.154;2023-03-13T03:39:34;95836.84;;;8.20;90.06
14689;BME280;7432;48.728;9.154;2023-03-13T03:42:01;95832.81;;;8.25;89.97
14689;BME280;7432;48.728;9.154;2023-03-13T03:44:28;95834.16;;;8.29;89.99
14689;BME280;7432;48.728;9.154;2023-03-13T03:46:55;95832.53;;;8.28;90.19
14689;BME280;7432;48.728;9.154;2023-03-13T03:49:21;95833.00;;;8.40;89.76
14689;BME280;7432;48.728;9.154;2023-03-13T03:51:49;95822.41;;;8.43;88.99
14689;BME280;7432;48.728;9.154;2023-03-13T03:54:15;95834.94;;;8.46;89.01
14689;BME280;7432;48.728;9.154;2023-03-13T03:56:41;95842.31;;;8.49;88.74
14689;BME280;7432;48.728;9.154;2023-03-13T03:59:08;95840.19;;;8.53;89.02
14689;BME280;7432;48.728;9.154;2023-03-13T04:01:34;95843.72;;;8.52;90.24
14689;BME280;7432;48.728;9.154;2023-03-13T04:04:00;95847.72;;;8.62;89.47
14689;BME280;7432;48.728;9.154;2023-03-13T04:06:27;95846.91;;;8.70;89.42
14689;BME280;7432;48.728;9.154;2023-03-13T04:08:55;95841.59;;;8.79;90.17
14689;BME280;7432;48.728;9.154;2023-03-13T04:11:21;95846.53;;;8.89;90.36
14689;BME280;7432;48.728;9.154;2023-03-13T04:13:47;95832.50;;;9.00;90.52
14689;BME280;7432;48.728;9.154;2023-03-13T04:16:14;95834.53;;;9.20;90.53
14689;BME280;7432;48.728;9.154;2023-03-13T04:18:40;95831.78;;;9.22;91.56
14689;BME280;7432;48.728;9.154;2023-03-13T04:21:06;95828.38;;;9.29;91.94
14689;BME280;7432;48.728;9.154;2023-03-13T04:23:33;95830.56;;;9.40;91.68
14689;BME280;7432;48.728;9.154;2023-03-13T04:26:00;95815.50;;;9.60;91.74
14689;BME280;7432;48.728;9.154;2023-03-13T04:28:27;95820.03;;;9.58;92.54
14689;BME280;7432;48.728;9.154;2023-03-13T04:30:53;95827.00;;;9.72;91.81
14689;BME280;7432;48.728;9.154;2023-03-13T04:33:21;95817.50;;;9.73;92.02
14689;BME280;7432;48.728;9.154;2023-03-13T04:35:47;95819.13;;;9.74;92.42
14689;BME280;7432;48.728;9.154;2023-03-13T04:38:14;95813.44;;;9.78;91.89
14689;BME280;7432;48.728;9.154;2023-03-13T04:40:40;95816.09;;;9.93;91.74
14689;BME280;7432;48.728;9.154;2023-03-13T04:43:08;95815.53;;;9.83;92.51
14689;BME280;7432;48.728;9.154;2023-03-13T04:45:35;95808.97;;;9.80;92.45
14689;BME280;7432;48.728;9.154;2023-03-13T04:48:01;95820.31;;;9.86;92.46
14689;BME280;7432;48.728;9.154;2023-03-13T04:50:27;95813.22;;;9.88;92.20
14689;BME280;7432;48.728;9.154;2023-03-13T04:52:54;95803.91;;;9.87;92.60
14689;BME280;7432;48.728;9.154;2023-03-13T04:55:20;95802.47;;;9.84;92.82
14689;BME280;7432;48.728;9.154;2023-03-13T04:57:46;95799.09;;;9.84;93.00
14689;BME280;7432;48.728;9.154;2023-03-13T05:00:15;95796.53;;;9.84;93.56
14689;BME280;7432;48.728;9.154;2023-03-13T05:02:41;95799.56;;;9.87;93.22
14689;BME280;7432;48.728;9.154;2023-03-13T05:05:08;95806.47;;;9.87;92.95
14689;BME280;7432;48.728;9.154;2023-03-13T05:07:34;95806.75;;;9.92;93.04
14689;BME280;7432;48.728;9.154;2023-03-13T05:10:01;95812.69;;;9.92;93.08
14689;BME280;7432;48.728;9.154;2023-03-13T05:12:27;95799.63;;;9.79;93.47
14689;BME280;7432;48.728;9.154;2023-03-13T05:14:53;95781.63;;;9.79;93.92
14689;BME280;7432;48.728;9.154;2023-03-13T05:17:21;95794.94;;;9.83;93.53
14689;BME280;7432;48.728;9.154;2023-03-13T05:19:47;95798.25;;;9.91;93.45
14689;BME280;7432;48.728;9.154;2023-03-13T05:22:14;95802.13;;;9.87;93.57
14689;BME280;7432;48.728;9.154;2023-03-13T05:24:40;95796.03;;;9.88;93.52
14689;BME280;7432;48.728;9.154;2023-03-13T05:27:06;95800.72;;;9.85;93.63
14689;BME280;7432;48.728;9.154;2023-03-13T05:29:33;95790.44;;;9.85;93.76
14689;BME280;7432;48.728;9.154;2023-03-13T05:31:59;95796.03;;;9.88;93.32
14689;BME280;7432;48.728;9.154;2023-03-13T05:34:27;95803.84;;;9.95;92.79
14689;BME280;7432;48.728;9.154;2023-03-13T05:36:53;95793.28;;;9.90;93.40
14689;BME280;7432;48.728;9.154;2023-03-13T05:39:20;95789.41;;;9.94;92.84
14689;BME280;7432;48.728;9.154;2023-03-13T05:41:46;95787.09;;;9.99;92.45
14689;BME280;7432;48.728;9.154;2023-03-13T05:44:12;95790.63;;;9.98;92.45
14689;BME280;7432;48.728;9.154;2023-03-13T05:46:39;95803.28;;;10.07;92.06
14689;BME280;7432;48.728;9.154;2023-03-13T05:49:05;95790.22;;;10.09;91.94
14689;BME280;7432;48.728;9.154;2023-03-13T05:51:33;95789.00;;;10.05;92.06
14689;BME280;7432;48.728;9.154;2023-03-13T05:54:00;95777.38;;;10.09;92.66
14689;BME280;7432;48.728;9.154;2023-03-13T05:56:26;95783.00;;;10.13;92.58
14689;BME280;7432;48.728;9.154;2023-03-13T05:58:52;95775.91;;;10.15;92.83
14689;BME280;7432;48.728;9.154;2023-03-13T06:01:19;95773.03;;;10.09;92.85
14689;BME280;7432;48.728;9.154;2023-03-13T06:03:45;95771.06;;;10.11;92.66
14689;BME280;7432;48.728;9.154;2023-03-13T06:06:11;95776.34;;;10.18;92.21
14689;BME280;7432;48.728;9.154;2023-03-13T06:08:39;95779.28;;;10.15;92.06
14689;BME280;7432;48.728;9.154;2023-03-13T06:11:06;95771.66;;;10.22;91.66
14689;BME280;7432;48.728;9.154;2023-03-13T06:13:32;95778.66;;;10.28;91.41
14689;BME280;7432;48.728;9.154;2023-03-13T06:15:58;95788.25;;;10.34;91.06
14689;BME280;7432;48.728;9.154;2023-03-13T06:18:25;95788.78;;;10.44;90.69
14689;BME280;7432;48.728;9.154;2023-03-13T06:20:56;95778.41;;;10.52;89.85
14689;BME280;7432;48.728;9.154;2023-03-13T06:23:23;95776.75;;;10.59;89.99
14689;BME280;7432;48.728;9.154;2023-03-13T06:25:50;95804.16;;;10.66;89.69
14689;BME280;7432;48.728;9.154;2023-03-13T06:28:17;95792.63;;;10.77;89.13
14689;BME280;7432;48.728;9.154;2023-03-13T06:30:43;95801.44;;;10.68;90.56
14689;BME280;7432;48.728;9.154;2023-03-13T06:33:09;95795.38;;;10.76;89.56
14689;BME280;7432;48.728;9.154;2023-03-13T06:35:38;95780.91;;;10.89;89.14
14689;BME280;7432;48.728;9.154;2023-03-13T06:38:05;95788.78;;;10.88;89.36
14689;BME280;7432;48.728;9.154;2023-03-13T06:40:31;95783.75;;;10.94;89.32
14689;BME280;7432;48.728;9.154;2023-03-13T06:42:59;95776.81;;;10.95;89.40
14689;BME280;7432;48.728;9.154;2023-03-13T06:45:25;95770.50;;;10.97;89.44
14689;BME280;7432;48.728;9.154;2023-03-13T06:47:52;95771.19;;;11.06;88.78
14689;BME280;7432;48.728;9.154;2023-03-13T06:50:18;95776.53;;;11.04;89.02
14689;BME280;7432;48.728;9.154;2023-03-13T06:52:45;95771.00;;;11.07;88.63
14689;BME280;7432;48.728;9.154;2023-03-13T06:55:13;95761.00;;;10.98;88.57
14689;BME280;7432;48.728;9.154;2023-03-13T06:57:39;95774.28;;;11.16;88.17
14689;BME280;7432;48.728;9.154;2023-03-13T07:00:09;95781.22;;;11.15;88.21
14689;BME280;7432;48.728;9.154;2023-03-13T07:02:36;95772.31;;;11.18;88.21
14689;BME280;7432;48.728;9.154;2023-03-13T07:05:03;95784.78;;;11.14;88.21
14689;BME280;7432;48.728;9.154;2023-03-13T07:07:30;95789.59;;;11.03;88.98
14689;BME280;7432;48.728;9.154;2023-03-13T07:09:57;95794.91;;;11.01;89.16
14689;BME280;7432;48.728;9.154;2023-03-13T07:12:23;95795.56;;;11.03;89.32
14689;BME280;7432;48.728;9.154;2023-03-13T07:14:49;95809.75;;;11.14;88.88
14689;BME280;7432;48.728;9.154;2023-03-13T07:17:17;95803.97;;;11.12;88.95
14689;BME280;7432;48.728;9.154;2023-03-13T07:19:44;95806.81;;;11.17;88.88
14689;BME280;7432;48.728;9.154;2023-03-13T07:22:10;95807.44;;;11.19;89.20
14689;BME280;7432;48.728;9.154;2023-03-13T07:24:37;95788.34;;;11.13;88.71
14689;BME280;7432;48.728;9.154;2023-03-13T07:27:03;95801.38;;;11.26;88.75
14689;BME280;7432;48.728;9.154;2023-03-13T07:29:29;95794.31;;;11.35;88.83
14689;BME280;7432;48.728;9.154;2023-03-13T07:31:56;95787.03;;;11.39;88.73
14689;BME280;7432;48.728;9.154;2023-03-13T07:34:23;95789.50;;;11.47;88.47
14689;BME280;7432;48.728;9.154;2023-03-13T07:36:50;95780.41;;;11.51;88.12
14689;BME280;7432;48.728;9.154;2023-03-13T07:39:16;95776.28;;;11.56;87.67
14689;BME280;7432;48.728;9.154;2023-03-13T07:41:43;95765.81;;;11.58;87.76
14689;BME280;7432;48.728;9.154;2023-03-13T07:44:09;95772.13;;;11.55;88.05
14689;BME280;7432;48.728;9.154;2023-03-13T07:46:35;95764.41;;;11.55;88.07
14689;BME280;7432;48.728;9.154;2023-03-13T07:49:02;95771.22;;;11.63;87.37
14689;BME280;7432;48.728;9.154;2023-03-13T07:51:29;95762.06;;;11.60;88.14
14689;BME280;7432;48.728;9.154;2023-03-13T07:53:56;95754.69;;;11.57;87.53
14689;BME280;7432;48.728;9.154;2023-03-13T07:56:23;95754.31;;;11.60;87.59
14689;BME280;7432;48.728;9.154;2023-03-13T07:58:50;95735.34;;;11.47;88.44
14689;BME280;7432;48.728;9.154;2023-03-13T08:01:18;95739.38;;;11.56;88.50
14689;BME280;7432;48.728;9.154;2023-03-13T08:03:46;95733.09;;;11.58;87.39
14689;BME280;7432;48.728;9.154;2023-03-13T08:06:16;95736.47;;;11.80;87.57
14689;BME280;7432;48.728;9.154;2023-03-13T08:08:44;95732.22;;;11.94;86.74
14689;BME280;7432;48.728;9.154;2023-03-13T08:11:12;95725.56;;;12.06;85.83
14689;BME280;7432;48.728;9.154;2023-03-13T08:13:39;95728.34;;;12.11;85.91
14689;BME280;7432;48.728;9.154;2023-03-13T08:16:08;95715.00;;;12.28;85.30
14689;BME280;7432;48.728;9.154;2023-03-13T08:18:36;95695.75;;;12.31;85.15
14689;BME280;7432;48.728;9.154;2023-03-13T08:21:03;95692.78;;;12.40;84.90
14689;BME280;7432;48.728;9.154;2023-03-13T08:23:30;95692.66;;;12.48;84.22
14689;BME280;7432;48.728;9.154;2023-03-13T08:26:03;95705.91;;;12.80;83.35
14689;BME280;7432;48.728;9.154;2023-03-13T08:28:29;95708.75;;;12.91;81.92
14689;BME280;7432;48.728;9.154;2023-03-13T08:30:56;95702.97;;;12.96;81.65
14689;BME280;7432;48.728;9.154;2023-03-13T08:33:22;95713.13;;;13.04;81.71
14689;BME280;7432;48.728;9.154;2023-03-13T08:35:49;95718.00;;;13.33;80.21
14689;BME280;7432;48.728;9.154;2023-03-13T08:38:15;95731.94;;;13.39;80.55
14689;BME280;7432;48.728;9.154;2023-03-13T08:40:42;95736.97;;;13.53;79.20
14689;BME280;7432;48.728;9.154;2023-03-13T08:43:10;95731.59;;;13.61;78.97
14689;BME280;7432;48.728;9.154;2023-03-13T08:45:36;95732.00;;;13.65;78.47
14689;BME280;7432;48.728;9.154;2023-03-13T08:48:03;95740.56;;;13.65;77.84
14689;BME280;7432;48.728;9.154;2023-03-13T08:50:29;95747.91;;;13.49;78.94
14689;BME280;7432;48.728;9.154;2023-03-13T08:52:55;95742.97;;;13.60;78.04
14689;BME280;7432;48.728;9.154;2023-03-13T08:55:22;95740.34;;;13.41;79.05
14689;BME280;7432;48.728;9.154;2023-03-13T08:57:48;95754.28;;;13.46;78.67
14689;BME280;7432;48.728;9.154;2023-03-13T09:00:17;95749.47;;;13.50;77.75
14689;BME280;7432;48.728;9.154;2023-03-13T09:02:43;95752.91;;;13.57;77.42
14689;BME280;7432;48.728;9.154;2023-03-13T09:05:10;95747.94;;;13.62;77.10
14689;BME280;7432;48.728;9.154;2023-03-13T09:07:36;95735.19;;;13.60;77.63
14689;BME280;7432;48.728;9.154;2023-03-13T09:10:03;95739.97;;;13.57;76.59
14689;BME280;7432;48.728;9.154;2023-03-13T09:12:29;95751.88;;;13.58;77.37
14689;BME280;7432;48.728;9.154;2023-03-13T09:14:56;95744.56;;;13.68;76.07
14689;BME280;7432;48.728;9.154;2023-03-13T09:17:23;95755.91;;;13.74;76.22
14689;BME280;7432;48.728;9.154;2023-03-13T09:19:51;95746.16;;;13.82;75.97
14689;BME280;7432;48.728;9.154;2023-03-13T09:22:17;95747.75;;;13.90;75.56
14689;BME280;7432;48.728;9.154;2023-03-13T09:24:43;95738.78;;;13.92;75.50
14689;BME280;7432;48.728;9.154;2023-03-13T09:27:10;95737.59;;;14.01;74.77
14689;BME280;7432;48.728;9.154;2023-03-13T09:29:36;95735.38;;;14.18;74.42
14689;BME280;7432;48.728;9.154;2023-03-13T09:32:06;95741.97;;;14.40;73.44
14689;BME280;7432;48.728;9.154;2023-03-13T09:34:33;95742.19;;;14.39;73.46
14689;BME280;7432;48.728;9.154;2023-03-13T09:37:00;95742.75;;;14.21;74.34
14689;BME280;7432;48.728;9.154;2023-03-13T09:39:26;95743.56;;;14.35;73.27
14689;BME280;7432;48.728;9.154;2023-03-13T09:41:57;95748.31;;;14.51;72.59
14689;BME280;7432;48.728;9.154;2023-03-13T09:44:30;95747.88;;;14.73;71.89
14689;BME280;7432;48.728;9.154;2023-03-13T09:47:01;95751.03;;;14.75;71.36
14689;BME280;7432;48.728;9.154;2023-03-13T09:49:34;95752.97;;;15.00;70.51
14689;BME280;7432;48.728;9.154;2023-03-13T09:52:13;95751.38;;;15.05;70.31
14689;BME280;7432;48.728;9.154;2023-03-13T09:54:44;95764.38;;;15.36;68.95
14689;BME280;7432;48.728;9.154;2023-03-13T09:57:15;95762.75;;;15.80;67.16
14689;BME280;7432;48.728;9.154;2023-03-13T09:59:48;95755.13;;;16.34;66.01
14689;BME280;7432;48.728;9.154;2023-03-13T10:02:22;95752.59;;;16.71;64.93
14689;BME280;7432;48.728;9.154;2023-03-13T10:04:55;95740.75;;;16.93;63.62
14689;BME280;7432;48.728;9.154;2023-03-13T10:07:24;95726.75;;;16.94;63.59
14689;BME280;7432;48.728;9.154;2023-03-13T10:09:51;95745.09;;;16.63;62.64
14689;BME280;7432;48.728;9.154;2023-03-13T10:12:19;95743.94;;;16.77;62.80
14689;BME280;7432;48.728;9.154;2023-03-13T10:14:53;95734.53;;;16.76;62.98
14689;BME280;7432;48.728;9.154;2023-03-13T10:17:30;95733.25;;;16.85;62.72
14689;BME280;7432;48.728;9.154;2023-03-13T10:20:00;95716.63;;;16.86;63.13
14689;BME280;7432;48.728;9.154;2023-03-13T10:22:33;95716.06;;;16.84;62.92
14689;BME280;7432;48.728;9.154;2023-03-13T10:25:03;95699.50;;;16.42;63.88
14689;BME280;7432;48.728;9.154;2023-03-13T10:27:42;95696.88;;;16.24;63.81
14689;BME280;7432;48.728;9.154;2023-03-13T10:30:19;95704.03;;;16.28;64.35
14689;BME280;7432;48.728;9.154;2023-03-13T10:32:47;95703.94;;;16.35;64.70
14689;BME280;7432;48.728;9.154;2023-03-13T10:35:21;95709.19;;;16.53;64.25
14689;BME280;7432;48.728;9.154;2023-03-13T10:37:48;95695.97;;;16.91;62.96
14689;BME280;7432;48.728;9.154;2023-03-13T10:40:20;95697.88;;;17.13;61.68
14689;BME280;7432;48.728;9.154;2023-03-13T10:42:50;95710.44;;;17.46;60.65
14689;BME280;7432;48.728;9.154;2023-03-13T10:45:18;95700.75;;;17.95;60.61
14689;BME280;7432;48.728;9.154;2023-03-13T10:47:53;95693.13;;;18.40;58.22
14689;BME280;7432;48.728;9.154;2023-03-13T10:50:23;95693.25;;;18.56;57.10
14689;BME280;7432;48.728;9.154;2023-03-13T10:52:50;95687.41;;;18.49;57.60
14689;BME280;7432;48.728;9.154;2023-03-13T10:55:19;95687.91;;;18.28;57.38
14689;BME280;7432;48.728;9.154;2023-03-13T10:57:54;95675.59;;;18.00;58.20
14689;BME280;7432;48.728;9.154;2023-03-13T11:00:33;95676.84;;;17.86;58.44
14689;BME280;7432;48.728;9.154;2023-03-13T11:03:01;95658.47;;;17.93;59.21
14689;BME280;7432;48.728;9.154;2023-03-13T11:05:54;95664.47;;;17.82;58.89
14689;BME280;7432;48.728;9.154;2023-03-13T11:08:23;95668.75;;;17.76;58.63
14689;BME280;7432;48.728;9.154;2023-03-13T11:10:57;95676.91;;;17.80;58.85
14689;BME280;7432;48.728;9.154;2023-03-13T11:13:33;95680.13;;;18.05;57.91
14689;BME280;7432;48.728;9.154;2023-03-13T11:16:08;95667.44;;;18.08;57.84
14689;BME280;7432;48.728;9.154;2023-03-13T11:18:41;95662.56;;;18.00;57.50
14689;BME280;7432;48.728;9.154;2023-03-13T11:21:17;95657.91;;;18.25;57.47
14689;BME280;7432;48.728;9.154;2023-03-13T11:23:49;95652.22;;;18.28;56.60
14689;BME280;7432;48.728;9.154;2023-03-13T11:26:25;95638.78;;;17.97;57.42
14689;BME280;7432;48.728;9.154;2023-03-13T11:28:57;95639.69;;;18.02;57.54
14689;BME280;7432;48.728;9.154;2023-03-13T11:31:28;95624.28;;;17.77;57.90
14689;BME280;7432;48.728;9.154;2023-03-13T11:34:03;95612.59;;;17.80;57.85
14689;BME280;7432;48.728;9.154;2023-03-13T11:36:34;95606.59;;;17.68;58.04
14689;BME280;7432;48.728;9.154;2023-03-13T11:39:08;95607.66;;;17.49;59.32
14689;BME280;7432;48.728;9.154;2023-03-13T11:41:51;95595.88;;;17.23;59.61
14689;BME280;7432;48.728;9.154;2023-03-13T11:44:29;95598.06;;;17.08;60.47
14689;BME280;7432;48.728;9.154;2023-03-13T11:47:07;95581.81;;;17.24;59.75
14689;BME280;7432;48.728;9.154;2023-03-13T11:52:42;95566.50;;;17.46;60.51
14689;BME280;7432;48.728;9.154;2023-03-13T11:55:23;95557.47;;;17.71;60.22
14689;BME280;7432;48.728;9.154;2023-03-13T11:57:57;95551.78;;;17.98;59.11
14689;BME280;7432;48.728;9.154;2023-03-13T12:00:32;95532.50;;;17.99;58.42
14689;BME280;7432;48.728;9.154;2023-03-13T12:03:04;95528.75;;;18.06;58.11
14689;BME280;7432;48.728;9.154;2023-03-13T12:05:40;95528.00;;;17.94;57.07
14689;BME280;7432;48.728;9.154;2023-03-13T12:08:15;95524.25;;;17.90;57.23
14689;BME280;7432;48.728;9.154;2023-03-13T12:10:46;95506.72;;;17.62;56.63
14689;BME280;7432;48.728;9.154;2023-03-13T12:13:18;95518.72;;;17.75;56.96
14689;BME280;7432;48.728;9.154;2023-03-13T12:15:49;95510.00;;;17.81;57.09
14689;BME280;7432;48.728;9.154;2023-03-13T12:18:19;95498.47;;;17.77;57.74
14689;BME280;7432;48.728;9.154;2023-03-13T12:20:51;95485.19;;;17.90;57.49
14689;BME280;7432;48.728;9.154;2023-03-13T12:23:27;95481.69;;;17.85;58.09
14689;BME280;7432;48.728;9.154;2023-03-13T12:25:59;95465.41;;;17.77;57.86
14689;BME280;7432;48.728;9.154;2023-03-13T12:28:32;95462.34;;;17.81;56.73
14689;BME280;7432;48.728;9.154;2023-03-13T12:31:08;95453.47;;;17.82;57.26
14689;BME280;7432;48.728;9.154;2023-03-13T12:33:39;95450.06;;;17.93;57.46
14689;BME280;7432;48.728;9.154;2023-03-13T12:36:12;95444.81;;;18.04;56.83
14689;BME280;7432;48.728;9.154;2023-03-13T12:38:45;95430.69;;;18.00;55.71
14689;BME280;7432;48.728;9.154;2023-03-13T12:41:18;95416.25;;;18.09;54.77
14689;BME280;7432;48.728;9.154;2023-03-13T12:43:50;95420.28;;;18.17;54.23
14689;BME280;7432;48.728;9.154;2023-03-13T12:46:30;95407.38;;;18.22;55.26
14689;BME280;7432;48.728;9.154;2023-03-13T12:49:13;95407.78;;;18.30;54.75
14689;BME280;7432;48.728;9.154;2023-03-13T12:51:52;95396.16;;;18.21;55.33
14689;BME280;7432;48.728;9.154;2023-03-13T12:54:39;95387.16;;;18.29;54.58
14689;BME280;7432;48.728;9.154;2023-03-13T12:57:26;95370.31;;;18.36;55.14
14689;BME280;7432;48.728;9.154;2023-03-13T12:59:59;95360.94;;;18.35;55.37
14689;BME280;7432;48.728;9.154;2023-03-13T13:02:30;95358.50;;;18.46;53.20
14689;BME280;7432;48.728;9.154;2023-03-13T13:04:59;95358.81;;;18.32;54.05
14689;BME280;7432;48.728;9.154;2023-03-13T13:07:27;95349.84;;;18.57;53.73
14689;BME280;7432;48.728;9.154;2023-03-13T13:10:03;95359.53;;;18.61;53.22
14689;BME280;7432;48.728;9.154;2023-03-13T13:12:40;95351.03;;;18.66;53.02
14689;BME280;7432;48.728;9.154;2023-03-13T13:15:16;95325.31;;;18.74;53.40
14689;BME280;7432;48.728;9.154;2023-03-13T13:17:53;95325.31;;;18.74;52.61
14689;BME280;7432;48.728;9.154;2023-03-13T13:20:39;95321.59;;;18.70;53.52
14689;BME280;7432;48.728;9.154;2023-03-13T13:23:29;95311.63;;;18.84;53.17
14689;BME280;7432;48.728;9.154;2023-03-13T13:32:44;95298.75;;;18.99;53.38
14689;BME280;7432;48.728;9.154;2023-03-13T13:35:22;95301.59;;;19.14;52.27